Time;durP1;ratioP1;P1;durP2;ratioP2;P2;SDS_P1;SDS_P2;PMS_P1;PMS_P2;Temp;Humidity;BMP_temperature;BMP_pressure;BME280_temperature;BME280_humidity;BME280_pressure;Samples;Min_cycle;Max_cycle;Signal;HPM_P1;HPM_P2
2023/06/09 00:00:47;;;;;;;8.00;7.00;;;14.70;99.90;;;;;;5031275;28;20194;-77
2023/06/09 00:03:21;;;;;;;9.03;7.80;;;14.60;99.90;;;;;;5036417;28;20226;-77
2023/06/09 00:05:48;;;;;;;8.70;7.80;;;14.60;99.90;;;;;;5036358;28;20208;-78
2023/06/09 00:08:15;;;;;;;7.93;7.13;;;14.60;99.90;;;;;;5036502;28;20687;-77
2023/06/09 00:10:41;;;;;;;8.97;8.07;;;14.50;99.90;;;;;;5027467;28;20208;-77
2023/06/09 00:13:09;;;;;;;8.07;6.70;;;14.50;99.90;;;;;;5036213;28;20221;-77
2023/06/09 00:15:38;;;;;;;9.07;8.17;;;14.50;99.90;;;;;;5028384;28;20200;-78
2023/06/09 00:18:05;;;;;;;8.23;7.40;;;14.40;99.90;;;;;;5035110;28;20249;-78
2023/06/09 00:20:33;;;;;;;8.97;8.07;;;14.30;99.90;;;;;;5044248;28;20585;-78
2023/06/09 00:23:01;;;;;;;8.10;7.27;;;14.30;99.90;;;;;;5035809;28;20214;-78
2023/06/09 00:25:28;;;;;;;8.80;7.90;;;14.20;99.90;;;;;;5036197;28;20202;-78
2023/06/09 00:27:54;;;;;;;8.27;7.37;;;14.20;99.90;;;;;;5035279;28;20215;-77
2023/06/09 00:30:22;;;;;;;8.73;7.83;;;14.20;99.90;;;;;;5036696;28;20214;-78
2023/06/09 00:32:50;;;;;;;9.30;8.23;;;14.10;99.90;;;;;;5038194;28;20217;-77
2023/06/09 00:35:17;;;;;;;10.33;8.73;;;14.10;99.90;;;;;;5030918;28;20266;-77
2023/06/09 00:37:46;;;;;;;9.40;8.30;;;14.10;99.90;;;;;;5023106;28;20215;-77
2023/06/09 00:40:14;;;;;;;8.77;7.87;;;14.00;99.90;;;;;;5031207;28;20263;-76
2023/06/09 00:42:41;;;;;;;9.40;7.77;;;14.10;99.90;;;;;;5031432;28;20213;-77
2023/06/09 00:45:09;;;;;;;8.70;6.87;;;14.10;99.90;;;;;;5029318;28;20352;-77
2023/06/09 00:47:36;;;;;;;8.57;7.70;;;14.00;99.90;;;;;;5029842;28;20255;-77
2023/06/09 00:50:05;;;;;;;9.00;7.83;;;13.90;99.90;;;;;;5030594;28;20314;-76
2023/06/09 00:52:33;;;;;;;10.43;9.40;;;13.90;99.90;;;;;;5029433;28;20313;-77
2023/06/09 00:55:00;;;;;;;10.57;9.47;;;13.90;99.90;;;;;;5029783;28;20195;-77
2023/06/09 00:57:29;;;;;;;11.23;10.20;;;13.90;99.90;;;;;;5029266;28;20764;-77
2023/06/09 00:59:57;;;;;;;10.80;9.80;;;13.80;99.90;;;;;;5025735;28;20202;-77
2023/06/09 01:02:24;;;;;;;9.77;8.77;;;13.80;99.90;;;;;;5027437;28;20225;-75
2023/06/09 01:04:52;;;;;;;10.43;9.43;;;13.80;99.90;;;;;;5021628;28;20293;-76
2023/06/09 01:07:31;;;;;;;10.43;9.43;;;13.80;99.90;;;;;;5031015;28;20246;-77
2023/06/09 01:10:05;;;;;;;10.77;9.77;;;13.70;99.90;;;;;;5019148;28;20855;-77
2023/06/09 01:12:43;;;;;;;10.63;9.63;;;13.70;99.90;;;;;;5030841;28;20225;-76
2023/06/09 01:15:17;;;;;;;11.50;10.03;;;13.60;99.90;;;;;;5030883;28;20229;-76
2023/06/09 01:17:48;;;;;;;10.37;8.77;;;13.50;99.90;;;;;;5021866;28;20246;-77
2023/06/09 01:20:23;;;;;;;10.77;9.70;;;13.50;99.90;;;;;;5030691;28;20225;-76
2023/06/09 01:22:58;;;;;;;10.90;8.80;;;13.50;99.90;;;;;;5029552;28;20219;-77
2023/06/09 01:25:34;;;;;;;8.70;7.80;;;13.50;99.90;;;;;;5029249;28;20252;-77
2023/06/09 01:28:04;;;;;;;11.87;8.07;;;13.50;99.90;;;;;;5035941;28;20695;-78
2023/06/09 01:30:32;;;;;;;10.50;9.07;;;13.50;99.90;;;;;;5036436;28;20697;-77
2023/06/09 01:33:01;;;;;;;11.30;10.10;;;13.40;99.90;;;;;;5035313;28;20228;-81
2023/06/09 01:35:29;;;;;;;10.53;9.20;;;13.40;99.90;;;;;;5041519;28;20222;-79
2023/06/09 01:37:57;;;;;;;9.60;8.60;;;13.40;99.90;;;;;;5039848;28;20214;-77
2023/06/09 01:40:24;;;;;;;9.77;8.77;;;13.30;99.90;;;;;;5039385;28;20210;-77
2023/06/09 01:42:53;;;;;;;9.53;8.53;;;13.30;99.90;;;;;;5038532;28;20226;-78
2023/06/09 01:45:20;;;;;;;10.47;9.37;;;13.20;99.90;;;;;;5037874;28;20270;-77
2023/06/09 01:47:47;;;;;;;9.80;8.80;;;13.30;99.90;;;;;;5037946;28;20283;-77
2023/06/09 01:50:19;;;;;;;10.07;9.07;;;13.20;99.90;;;;;;5030269;28;20200;-77
2023/06/09 01:52:51;;;;;;;10.03;9.00;;;13.20;99.90;;;;;;5037191;28;20281;-76
2023/06/09 01:55:22;;;;;;;8.60;7.70;;;13.10;99.90;;;;;;5037614;28;20230;-77
2023/06/09 01:57:54;;;;;;;10.73;8.83;;;13.10;99.90;;;;;;5038853;28;20234;-78
2023/06/09 02:00:24;;;;;;;9.53;8.53;;;13.10;99.90;;;;;;5033602;28;20307;-77
2023/06/09 02:02:55;;;;;;;9.30;8.37;;;13.10;99.90;;;;;;5039230;28;20204;-77
2023/06/09 02:05:23;;;;;;;9.23;8.33;;;13.00;99.90;;;;;;5036606;28;20204;-78
2023/06/09 02:07:51;;;;;;;10.37;9.27;;;13.00;99.90;;;;;;5037521;28;20202;-77
2023/06/09 02:10:21;;;;;;;9.27;8.33;;;13.00;99.90;;;;;;5039648;28;20203;-77
2023/06/09 02:12:48;;;;;;;9.73;8.70;;;12.90;99.90;;;;;;5039461;28;20584;-77
2023/06/09 02:15:16;;;;;;;12.03;8.43;;;12.90;99.90;;;;;;5037871;28;20196;-77
2023/06/09 02:17:43;;;;;;;11.90;9.70;;;13.00;99.90;;;;;;5026802;28;20598;-77
2023/06/09 02:20:11;;;;;;;10.53;9.50;;;12.90;99.90;;;;;;5026348;28;20204;-78
2023/06/09 02:22:38;;;;;;;10.47;9.30;;;12.90;99.90;;;;;;5035581;28;20228;-78
2023/06/09 02:25:08;;;;;;;10.17;9.17;;;12.90;99.90;;;;;;5039278;28;20192;-77
2023/06/09 02:27:35;;;;;;;10.53;9.53;;;12.90;99.90;;;;;;5036577;28;20257;-77
2023/06/09 02:30:02;;;;;;;11.07;9.20;;;12.90;99.90;;;;;;5037091;28;20195;-77
2023/06/09 02:32:30;;;;;;;11.30;10.20;;;12.90;99.90;;;;;;5037169;28;20227;-78
2023/06/09 02:34:57;;;;;;;11.07;10.07;;;12.80;99.90;;;;;;5037701;28;20740;-77
2023/06/09 02:37:24;;;;;;;9.43;8.53;;;12.80;99.90;;;;;;5037100;28;20200;-78
2023/06/09 02:39:51;;;;;;;8.60;7.60;;;12.80;99.90;;;;;;5041306;28;20688;-78
2023/06/09 02:42:18;;;;;;;11.20;10.00;;;12.80;99.90;;;;;;5033112;28;20295;-78
2023/06/09 02:44:48;;;;;;;10.87;9.10;;;12.80;99.90;;;;;;5044477;28;20195;-78
2023/06/09 02:47:15;;;;;;;12.33;11.13;;;12.70;99.90;;;;;;5038261;28;20279;-77
2023/06/09 02:49:43;;;;;;;12.43;11.13;;;12.70;99.90;;;;;;5034616;28;20583;-79
2023/06/09 02:52:10;;;;;;;11.33;10.23;;;12.70;99.90;;;;;;5031000;28;20232;-79
2023/06/09 02:54:39;;;;;;;12.47;11.20;;;12.60;99.90;;;;;;5046469;28;20203;-80
2023/06/09 02:57:07;;;;;;;13.07;10.30;;;12.60;99.90;;;;;;5045772;28;20204;-81
2023/06/09 02:59:35;;;;;;;11.47;10.37;;;12.50;99.90;;;;;;5042887;28;20220;-81
2023/06/09 03:02:01;;;;;;;12.00;10.77;;;12.50;99.90;;;;;;5043017;28;20212;-79
2023/06/09 03:04:29;;;;;;;12.07;10.97;;;12.50;99.90;;;;;;5042375;28;20231;-82
2023/06/09 03:06:58;;;;;;;11.17;10.17;;;12.40;99.90;;;;;;5035210;28;20283;-80
2023/06/09 03:09:26;;;;;;;12.03;11.03;;;12.40;99.90;;;;;;5045067;28;20216;-82
2023/06/09 03:11:59;;;;;;;12.53;11.40;;;12.40;99.90;;;;;;5040819;28;20629;-81
2023/06/09 03:14:26;;;;;;;12.17;10.93;;;12.40;99.90;;;;;;5049284;28;20195;-81
2023/06/09 03:16:54;;;;;;;10.60;9.50;;;12.40;99.90;;;;;;5042157;28;20211;-81
2023/06/09 03:19:21;;;;;;;11.40;10.30;;;12.40;99.90;;;;;;5041465;28;20223;-79
2023/06/09 03:21:48;;;;;;;12.83;11.67;;;12.30;99.90;;;;;;5047025;28;20220;-81
2023/06/09 03:24:17;;;;;;;11.77;10.77;;;12.40;99.90;;;;;;5036460;28;20207;-80
2023/06/09 03:26:45;;;;;;;11.90;10.80;;;12.30;99.90;;;;;;5043020;28;20199;-78
2023/06/09 03:29:12;;;;;;;11.60;10.60;;;12.30;99.90;;;;;;5034551;28;20196;-79
2023/06/09 03:31:41;;;;;;;13.40;12.20;;;12.30;99.90;;;;;;5039843;28;20224;-80
2023/06/09 03:34:08;;;;;;;11.50;10.00;;;12.30;99.90;;;;;;5043060;28;20278;-80
2023/06/09 03:36:35;;;;;;;11.90;10.80;;;12.30;99.90;;;;;;5037097;28;20201;-81
2023/06/09 03:39:04;;;;;;;11.93;10.83;;;12.40;99.90;;;;;;5042934;28;20215;-79
2023/06/09 03:41:33;;;;;;;10.57;9.57;;;12.40;99.90;;;;;;5044490;28;20223;-81
2023/06/09 03:44:00;;;;;;;11.00;10.00;;;12.40;99.90;;;;;;5031426;28;20223;-78
2023/06/09 03:46:27;;;;;;;11.90;10.80;;;12.40;99.90;;;;;;5032025;28;20247;-78
2023/06/09 03:48:54;;;;;;;12.47;11.20;;;12.40;99.90;;;;;;5027385;28;20196;-75
2023/06/09 03:51:22;;;;;;;11.83;10.73;;;12.50;99.90;;;;;;5036435;28;20756;-82
2023/06/09 03:53:48;;;;;;;11.73;10.60;;;12.50;99.90;;;;;;5030124;28;20214;-83
2023/06/09 03:56:15;;;;;;;11.57;9.87;;;12.50;99.90;;;;;;5017681;28;20216;-84
2023/06/09 03:58:44;;;;;;;11.33;9.77;;;12.60;99.90;;;;;;5033947;28;20218;-84
2023/06/09 04:01:11;;;;;;;12.93;11.57;;;12.60;99.90;;;;;;5029799;28;20188;-82
2023/06/09 04:03:38;;;;;;;11.10;10.10;;;12.60;99.90;;;;;;5028812;28;20227;-84
2023/06/09 04:06:06;;;;;;;11.57;10.47;;;12.60;99.90;;;;;;5026353;28;20211;-84
2023/06/09 04:08:33;;;;;;;12.33;11.03;;;12.60;99.90;;;;;;5035398;28;20196;-84
2023/06/09 04:11:00;;;;;;;9.53;8.60;;;12.60;99.90;;;;;;5037070;28;20206;-84
2023/06/09 04:13:27;;;;;;;10.70;9.70;;;12.70;99.90;;;;;;5032427;28;20196;-84
2023/06/09 04:15:55;;;;;;;10.57;9.60;;;12.80;99.90;;;;;;5036318;28;20199;-82
2023/06/09 04:18:23;;;;;;;11.60;10.60;;;12.80;99.90;;;;;;5036176;28;20220;-78
2023/06/09 04:20:50;;;;;;;13.27;12.07;;;12.90;99.90;;;;;;5035548;28;20630;-83
2023/06/09 04:23:17;;;;;;;11.67;10.57;;;12.90;99.90;;;;;;5032071;28;20213;-79
2023/06/09 04:25:46;;;;;;;12.90;11.60;;;13.00;99.90;;;;;;5048774;28;20218;-81
2023/06/09 04:28:17;;;;;;;12.50;11.33;;;13.10;99.90;;;;;;5036237;28;20640;-80
2023/06/09 04:30:47;;;;;;;11.47;10.43;;;13.30;99.90;;;;;;5045269;28;20199;-80
2023/06/09 04:33:18;;;;;;;12.87;11.67;;;13.40;99.90;;;;;;5034859;28;20224;-78
2023/06/09 04:35:53;;;;;;;9.60;8.60;;;13.50;99.90;;;;;;5034444;28;20197;-79
2023/06/09 04:38:23;;;;;;;12.57;8.90;;;13.70;99.90;;;;;;5046156;28;20249;-78
2023/06/09 04:40:50;;;;;;;13.20;8.67;;;13.90;99.90;;;;;;5046679;28;20202;-79
2023/06/09 04:43:19;;;;;;;9.97;8.70;;;14.00;99.90;;;;;;5036296;28;20242;-78
2023/06/09 04:45:55;;;;;;;12.20;10.57;;;14.10;99.90;;;;;;5034758;28;20199;-78
2023/06/09 04:48:24;;;;;;;12.03;10.93;;;14.20;99.90;;;;;;5034958;28;20194;-78
2023/06/09 04:50:50;;;;;;;10.57;9.50;;;15.30;99.90;;;;;;5034604;28;20231;-78
2023/06/09 04:53:19;;;;;;;10.03;9.00;;;16.10;99.90;;;;;;5033970;28;20711;-78
2023/06/09 04:55:52;;;;;;;10.10;8.50;;;16.40;99.90;;;;;;5041986;28;20624;-78
2023/06/09 04:58:19;;;;;;;9.37;8.30;;;16.70;99.90;;;;;;5030699;28;20217;-79
2023/06/09 05:00:46;;;;;;;8.83;7.47;;;16.60;99.90;;;;;;5035616;28;20619;-77
2023/06/09 05:03:17;;;;;;;9.37;8.37;;;16.40;99.90;;;;;;5021764;28;20317;-77
2023/06/09 05:05:47;;;;;;;8.07;7.27;;;16.20;99.90;;;;;;5036112;28;20293;-81
2023/06/09 05:08:15;;;;;;;10.93;7.87;;;16.20;99.90;;;;;;5033020;28;20238;-80
2023/06/09 05:10:42;;;;;;;9.10;8.20;;;16.20;99.90;;;;;;5039166;28;20282;-79
2023/06/09 05:13:09;;;;;;;9.70;8.53;;;16.30;99.90;;;;;;5034903;28;20219;-76
2023/06/09 05:15:36;;;;;;;10.00;7.90;;;16.40;99.90;;;;;;5042446;28;20634;-77
2023/06/09 05:18:04;;;;;;;9.83;8.53;;;16.40;99.90;;;;;;5026037;28;20591;-77
2023/06/09 05:20:32;;;;;;;9.70;8.40;;;16.60;99.90;;;;;;5038581;28;20237;-77
2023/06/09 05:23:01;;;;;;;8.87;7.97;;;16.90;99.90;;;;;;5027006;28;20588;-77
2023/06/09 05:25:28;;;;;;;8.53;7.63;;;17.00;99.90;;;;;;5025433;28;20434;-77
2023/06/09 05:27:55;;;;;;;9.37;8.17;;;17.00;99.90;;;;;;5025602;28;20197;-77
2023/06/09 05:30:21;;;;;;;8.73;7.83;;;16.90;99.90;;;;;;5035263;28;20569;-77
2023/06/09 05:32:49;;;;;;;9.10;7.70;;;16.90;99.90;;;;;;5032608;28;20231;-77
2023/06/09 05:35:16;;;;;;;8.43;7.53;;;16.90;99.90;;;;;;5033723;28;20223;-78
2023/06/09 05:37:50;;;;;;;8.60;7.70;;;17.00;99.90;;;;;;5039569;28;20216;-78
2023/06/09 05:40:20;;;;;;;8.73;7.83;;;17.20;99.90;;;;;;5036711;28;20221;-77
2023/06/09 05:42:47;;;;;;;9.87;8.00;;;17.60;99.90;;;;;;5029297;28;20253;-77
2023/06/09 05:45:14;;;;;;;9.80;8.80;;;18.00;99.90;;;;;;5038109;28;20200;-77
2023/06/09 05:47:41;;;;;;;8.10;7.27;;;18.50;99.90;;;;;;5028591;28;20234;-79
2023/06/09 05:50:08;;;;;;;8.37;7.57;;;19.10;99.90;;;;;;5037716;28;20196;-78
2023/06/09 05:52:35;;;;;;;8.63;7.73;;;19.70;99.90;;;;;;5039972;28;20212;-77
2023/06/09 05:55:02;;;;;;;8.47;7.67;;;20.30;99.90;;;;;;5038673;28;20646;-79
2023/06/09 05:57:30;;;;;;;9.37;7.83;;;20.50;99.90;;;;;;5037847;28;20290;-79
2023/06/09 05:59:57;;;;;;;8.10;7.30;;;20.80;99.90;;;;;;5034618;28;20710;-78
2023/06/09 06:02:24;;;;;;;9.27;8.37;;;21.40;99.90;;;;;;5035605;28;20243;-76
2023/06/09 06:04:51;;;;;;;8.57;7.47;;;21.60;99.90;;;;;;5028723;28;20295;-76
2023/06/09 06:07:20;;;;;;;7.73;6.90;;;21.80;99.90;;;;;;5036625;28;20230;-79
2023/06/09 06:09:46;;;;;;;8.00;7.20;;;22.20;99.90;;;;;;5037444;28;20192;-78
2023/06/09 06:12:13;;;;;;;8.37;7.57;;;22.40;99.90;;;;;;5037729;28;20254;-77
2023/06/09 06:14:41;;;;;;;9.23;6.90;;;22.60;99.90;;;;;;5037779;28;20208;-77
2023/06/09 06:17:08;;;;;;;8.10;7.30;;;22.90;99.90;;;;;;5039607;28;20257;-77
2023/06/09 06:19:35;;;;;;;8.33;6.83;;;23.00;99.90;;;;;;5036040;28;20223;-77
2023/06/09 06:22:02;;;;;;;7.07;6.37;;;23.20;99.90;;;;;;5034559;28;20216;-77
2023/06/09 06:24:28;;;;;;;7.77;6.87;;;23.50;99.90;;;;;;5034818;28;20565;-78
2023/06/09 06:26:55;;;;;;;8.83;6.80;;;23.70;99.90;;;;;;5031786;28;20286;-82
2023/06/09 06:29:22;;;;;;;6.97;6.27;;;23.70;99.90;;;;;;5043232;28;20203;-80
2023/06/09 06:31:50;;;;;;;7.80;7.10;;;23.90;99.90;;;;;;5038607;28;20250;-79
2023/06/09 06:34:17;;;;;;;8.33;7.30;;;24.10;99.90;;;;;;5039755;28;20263;-80
2023/06/09 06:36:44;;;;;;;7.73;6.87;;;24.20;99.90;;;;;;5040121;28;20215;-79
2023/06/09 06:39:12;;;;;;;10.20;7.37;;;24.60;99.90;;;;;;5038265;28;20250;-80
2023/06/09 06:41:39;;;;;;;10.33;9.33;;;24.60;99.90;;;;;;5040836;28;20661;-80
2023/06/09 06:44:05;;;;;;;8.50;7.80;;;24.40;99.90;;;;;;5041946;28;20203;-80
2023/06/09 06:46:32;;;;;;;8.87;8.10;;;24.40;99.90;;;;;;5041625;28;20196;-78
2023/06/09 06:49:01;;;;;;;9.40;8.50;;;24.40;99.90;;;;;;5037793;28;20203;-79
2023/06/09 06:51:28;;;;;;;9.53;8.63;;;24.70;99.90;;;;;;5045142;28;20243;-80
2023/06/09 06:53:54;;;;;;;9.63;8.53;;;25.20;99.90;;;;;;5031796;28;20204;-80
2023/06/09 06:56:22;;;;;;;6.30;5.70;;;25.40;99.90;;;;;;5032715;28;20189;-81
2023/06/09 06:58:49;;;;;;;7.50;6.77;;;25.70;99.90;;;;;;5035228;28;20206;-77
2023/06/09 07:01:17;;;;;;;10.10;6.17;;;26.10;99.90;;;;;;5025056;28;20220;-77
2023/06/09 07:03:45;;;;;;;6.37;5.73;;;26.00;99.90;;;;;;5030981;28;20210;-78
2023/06/09 07:06:14;;;;;;;6.63;5.97;;;26.00;99.90;;;;;;5034300;28;20223;-78
2023/06/09 07:08:40;;;;;;;43.90;11.77;;;26.00;99.90;;;;;;5029706;28;20196;-77
2023/06/09 07:11:07;;;;;;;9.73;8.80;;;25.90;99.90;;;;;;5035616;28;20224;-77
2023/06/09 07:13:34;;;;;;;8.80;8.10;;;26.10;99.90;;;;;;5036503;28;20270;-78
2023/06/09 07:16:02;;;;;;;8.60;7.50;;;26.40;99.90;;;;;;5031861;28;20708;-77
2023/06/09 07:18:29;;;;;;;8.20;7.50;;;26.70;99.90;;;;;;5026147;28;20211;-77
2023/06/09 07:20:56;;;;;;;7.20;6.60;;;26.90;99.90;;;;;;5034396;28;20215;-77
2023/06/09 07:23:24;;;;;;;8.73;7.90;;;27.10;99.90;;;;;;5024876;28;20204;-77
2023/06/09 07:25:51;;;;;;;9.17;7.03;;;27.10;99.90;;;;;;5031928;28;20228;-81
2023/06/09 07:28:18;;;;;;;6.53;5.93;;;26.80;99.90;;;;;;5036017;28;20199;-79
2023/06/09 07:30:45;;;;;;;5.93;5.43;;;27.20;99.90;;;;;;5034032;28;20202;-81
2023/06/09 07:33:13;;;;;;;6.57;5.23;;;27.40;99.90;;;;;;5033977;28;20228;-82
2023/06/09 07:35:40;;;;;;;7.17;6.53;;;27.30;99.90;;;;;;5036566;28;20287;-81
2023/06/09 07:38:07;;;;;;;7.10;6.50;;;27.50;99.90;;;;;;5034001;28;20224;-81
2023/06/09 07:40:36;;;;;;;6.80;6.20;;;27.00;99.90;;;;;;5031257;28;20219;-78
2023/06/09 07:43:02;;;;;;;6.53;5.70;;;26.70;99.90;;;;;;5043781;28;20226;-80
2023/06/09 07:45:30;;;;;;;9.90;6.70;;;26.70;99.90;;;;;;5030252;28;20224;-81
2023/06/09 07:47:57;;;;;;;6.10;5.50;;;26.70;99.90;;;;;;5036357;28;20667;-80
2023/06/09 07:50:23;;;;;;;6.97;5.80;;;26.80;99.90;;;;;;5025681;28;20607;-80
2023/06/09 07:52:50;;;;;;;6.87;6.27;;;27.20;99.90;;;;;;5036036;28;20248;-81
2023/06/09 07:55:17;;;;;;;6.13;5.50;;;27.20;99.90;;;;;;5035965;28;20303;-80
2023/06/09 07:57:46;;;;;;;5.60;4.80;;;27.20;99.90;;;;;;5027935;28;20227;-80
2023/06/09 08:00:15;;;;;;;5.70;5.20;;;27.20;99.90;;;;;;5031693;28;20268;-81
2023/06/09 08:02:43;;;;;;;6.53;4.67;;;27.30;99.90;;;;;;5035656;28;20214;-83
2023/06/09 08:05:14;;;;;;;5.33;4.83;;;27.50;99.90;;;;;;5026044;28;20206;-80
2023/06/09 08:07:41;;;;;;;5.40;4.90;;;27.60;99.90;;;;;;5034601;28;20199;-82
2023/06/09 08:10:08;;;;;;;6.23;5.10;;;27.70;99.90;;;;;;5037948;28;20192;-82
2023/06/09 08:12:35;;;;;;;5.30;4.63;;;27.40;99.90;;;;;;5034434;28;20212;-82
2023/06/09 08:15:04;;;;;;;5.57;5.00;;;27.60;99.90;;;;;;5036734;28;20239;-80
2023/06/09 08:17:31;;;;;;;6.60;5.50;;;27.80;99.90;;;;;;5032611;28;20649;-79
2023/06/09 08:19:57;;;;;;;5.30;4.80;;;28.10;99.90;;;;;;5035506;28;20214;-80
2023/06/09 08:22:24;;;;;;;5.00;4.50;;;27.90;99.90;;;;;;5030493;28;20227;-80
2023/06/09 08:24:52;;;;;;;6.30;5.80;;;28.20;99.90;;;;;;5039527;28;20227;-80
2023/06/09 08:27:19;;;;;;;10.90;5.77;;;28.30;99.90;;;;;;5029835;28;20215;-81
2023/06/09 08:29:45;;;;;;;6.73;6.20;;;28.10;99.90;;;;;;5027276;28;20208;-80
2023/06/09 08:32:16;;;;;;;10.53;7.03;;;28.30;99.90;;;;;;5024669;28;20286;-79
2023/06/09 08:34:43;;;;;;;7.50;6.83;;;28.30;99.90;;;;;;5032452;28;20196;-79
2023/06/09 08:37:11;;;;;;;7.20;6.50;;;28.40;99.90;;;;;;5038593;28;20234;-79
2023/06/09 08:39:38;;;;;;;7.17;6.40;;;28.70;99.90;;;;;;5031515;28;20215;-76
2023/06/09 08:42:10;;;;;;;7.27;6.63;;;28.50;99.90;;;;;;5031483;28;20220;-76
2023/06/09 08:44:40;;;;;;;6.40;5.27;;;28.30;99.90;;;;;;5031756;28;20204;-77
2023/06/09 08:47:08;;;;;;;5.57;4.70;;;28.20;99.90;;;;;;5031482;28;20334;-76
2023/06/09 08:49:37;;;;;;;4.93;4.30;;;28.30;99.90;;;;;;5030342;28;20290;-77
2023/06/09 08:52:05;;;;;;;6.30;5.70;;;28.80;99.90;;;;;;5035471;28;20234;-78
2023/06/09 08:54:32;;;;;;;6.17;5.67;;;29.00;99.90;;;;;;5032757;28;20627;-77
2023/06/09 08:57:00;;;;;;;5.33;4.40;;;29.40;99.90;;;;;;5025559;28;20230;-77
2023/06/09 08:59:33;;;;;;;7.93;4.60;;;29.10;99.90;;;;;;5032210;28;20196;-78
2023/06/09 09:02:01;;;;;;;6.30;4.93;;;29.50;99.90;;;;;;5032649;28;20220;-78
2023/06/09 09:04:28;;;;;;;4.90;4.40;;;29.80;99.90;;;;;;5035257;28;20227;-77
2023/06/09 09:06:56;;;;;;;5.03;4.53;;;29.70;99.90;;;;;;5029795;28;20572;-78
2023/06/09 09:09:23;;;;;;;5.53;4.67;;;29.90;99.90;;;;;;5035856;28;20588;-77
2023/06/09 09:11:51;;;;;;;7.43;6.83;;;29.60;99.90;;;;;;5030865;28;20224;-77
2023/06/09 09:14:18;;;;;;;4.93;4.43;;;29.80;99.90;;;;;;5035646;28;20196;-77
2023/06/09 09:16:45;;;;;;;7.80;7.10;;;30.00;99.90;;;;;;5029756;28;20203;-79
2023/06/09 09:19:12;;;;;;;6.37;4.80;;;30.00;99.90;;;;;;5049554;28;20199;-80
2023/06/09 09:21:39;;;;;;;6.07;4.60;;;29.30;99.90;;;;;;5031635;28;20287;-79
2023/06/09 09:24:10;;;;;;;5.80;4.50;;;29.40;99.90;;;;;;5029431;28;20199;-80
2023/06/09 09:26:38;;;;;;;6.03;4.77;;;29.10;99.90;;;;;;5031331;28;20613;-81
2023/06/09 09:29:06;;;;;;;6.07;4.90;;;29.30;99.90;;;;;;5027879;28;20193;-79
2023/06/09 09:31:36;;;;;;;5.70;4.67;;;29.50;99.90;;;;;;5034458;28;20219;-81
2023/06/09 09:34:02;;;;;;;9.10;4.80;;;29.50;99.90;;;;;;5026491;28;20192;-81
2023/06/09 09:36:29;;;;;;;4.70;4.30;;;29.50;99.90;;;;;;5040266;28;20748;-81
2023/06/09 09:38:57;;;;;;;5.90;5.10;;;29.80;99.90;;;;;;5025106;28;20215;-76
2023/06/09 09:41:25;;;;;;;4.53;4.13;;;29.60;99.40;;;;;;5026895;28;20590;-76
2023/06/09 09:43:56;;;;;;;4.93;4.43;;;30.00;99.90;;;;;;5022105;28;20204;-76
2023/06/09 09:46:23;;;;;;;5.57;4.33;;;30.50;99.90;;;;;;5028616;28;20208;-75
2023/06/09 09:48:50;;;;;;;4.57;4.17;;;30.60;97.20;;;;;;5030379;28;20199;-76
2023/06/09 09:51:20;;;;;;;5.37;4.87;;;30.50;98.60;;;;;;5028349;28;20302;-75
2023/06/09 09:53:47;;;;;;;5.13;4.63;;;30.50;98.20;;;;;;5030635;28;20202;-76
2023/06/09 09:56:17;;;;;;;5.67;4.13;;;30.60;98.30;;;;;;5030055;28;20201;-76
2023/06/09 09:58:48;;;;;;;4.60;4.20;;;30.80;98.30;;;;;;5029845;28;20677;-76
2023/06/09 10:01:17;;;;;;;7.27;6.57;;;30.90;97.00;;;;;;5036338;28;20259;-79
2023/06/09 10:03:45;;;;;;;7.10;6.50;;;31.00;97.50;;;;;;5035705;28;20199;-79
2023/06/09 10:06:16;;;;;;;7.10;6.40;;;30.70;96.60;;;;;;5031119;28;20683;-81
2023/06/09 10:08:44;;;;;;;7.33;6.73;;;30.60;97.40;;;;;;5030130;28;20207;-77
2023/06/09 10:11:12;;;;;;;6.43;5.90;;;30.80;97.10;;;;;;5033954;28;20249;-77
2023/06/09 10:13:39;;;;;;;5.47;4.97;;;30.40;95.80;;;;;;5025853;28;20738;-77
2023/06/09 10:16:08;;;;;;;5.30;4.80;;;30.00;97.20;;;;;;5028492;28;20200;-77
2023/06/09 10:18:38;;;;;;;5.37;4.97;;;30.10;97.00;;;;;;5031855;28;20662;-77
2023/06/09 10:21:05;;;;;;;5.23;4.83;;;30.30;96.60;;;;;;5028165;28;20773;-77
2023/06/09 10:23:33;;;;;;;6.93;6.30;;;30.70;95.70;;;;;;5030342;28;20200;-77
2023/06/09 10:26:01;;;;;;;7.40;6.83;;;30.10;94.70;;;;;;5039866;28;20197;-77
2023/06/09 10:28:28;;;;;;;7.63;7.03;;;30.10;95.40;;;;;;5031656;28;20209;-78
2023/06/09 10:30:56;;;;;;;7.60;7.00;;;30.20;95.10;;;;;;5038213;28;20661;-78
2023/06/09 10:33:27;;;;;;;7.00;6.50;;;30.00;93.80;;;;;;5025622;28;20247;-78
2023/06/09 10:35:58;;;;;;;6.70;5.90;;;29.60;94.00;;;;;;5033082;28;20258;-77
2023/06/09 10:38:28;;;;;;;6.07;5.37;;;29.40;94.10;;;;;;5029719;28;20207;-77
2023/06/09 10:41:02;;;;;;;7.83;5.33;;;29.20;93.80;;;;;;5032271;28;20494;-77
2023/06/09 10:43:50;;;;;;;5.80;5.30;;;28.90;94.50;;;;;;5033980;28;20261;-77
2023/06/09 10:46:17;;;;;;;4.77;4.37;;;28.60;94.30;;;;;;5026370;28;20218;-77
2023/06/09 10:48:48;;;;;;;6.50;5.97;;;28.50;95.20;;;;;;5035417;28;20207;-77
2023/06/09 10:51:43;;;;;;;4.10;3.70;;;28.60;96.10;;;;;;5031098;28;20212;-78
2023/06/09 10:54:23;;;;;;;4.80;4.40;;;28.80;95.00;;;;;;5034188;28;20211;-82
2023/06/09 10:56:55;;;;;;;5.50;5.00;;;28.20;94.80;;;;;;5029354;28;20896;-78
2023/06/09 11:02:44;;;;;;;7.60;6.90;;;28.10;95.90;;;;;;5021623;28;20270;-77
2023/06/09 11:05:13;;;;;;;7.40;6.90;;;28.10;94.50;;;;;;5028706;28;20742;-76
2023/06/09 11:07:43;;;;;;;7.60;7.00;;;28.10;95.20;;;;;;5034314;28;20258;-77
2023/06/09 11:10:35;;;;;;;7.30;6.70;;;28.40;96.30;;;;;;5028066;28;20197;-78
2023/06/09 11:13:03;;;;;;;6.70;6.20;;;28.60;95.30;;;;;;5032529;28;20228;-78
2023/06/09 11:15:57;;;;;;;5.83;4.00;;;28.60;93.70;;;;;;5031194;28;20192;-78
2023/06/09 11:18:24;;;;;;;3.73;3.40;;;28.70;94.00;;;;;;5030051;28;20210;-76
2023/06/09 11:21:20;;;;;;;4.23;3.80;;;28.60;93.50;;;;;;5029410;28;20310;-76
2023/06/09 11:24:01;;;;;;;3.97;3.47;;;28.50;93.50;;;;;;5032424;28;20653;-77
2023/06/09 11:26:30;;;;;;;4.10;3.70;;;28.60;93.50;;;;;;5028858;28;20199;-76
2023/06/09 11:28:56;;;;;;;3.70;3.40;;;28.40;94.30;;;;;;5030818;28;20278;-77
2023/06/09 11:31:23;;;;;;;3.90;3.60;;;28.40;94.60;;;;;;5027320;28;20258;-76
2023/06/09 11:33:53;;;;;;;4.30;3.90;;;28.50;93.40;;;;;;5030008;28;20331;-76
2023/06/09 11:36:48;;;;;;;6.83;6.23;;;28.40;94.10;;;;;;5027107;28;20222;-78
2023/06/09 11:39:15;;;;;;;7.13;6.53;;;28.20;94.20;;;;;;5030491;28;20597;-76
2023/06/09 11:41:41;;;;;;;6.63;6.00;;;28.00;95.10;;;;;;5030879;28;20774;-77
2023/06/09 11:44:08;;;;;;;3.70;3.40;;;28.10;94.10;;;;;;5018392;28;20212;-77
2023/06/09 11:46:36;;;;;;;5.83;3.73;;;27.90;95.00;;;;;;5033780;28;20212;-76
2023/06/09 11:49:09;;;;;;;4.67;3.70;;;27.60;94.40;;;;;;5023305;28;20200;-79
2023/06/09 11:51:59;;;;;;;4.37;3.97;;;27.20;94.50;;;;;;5033160;28;20270;-77
2023/06/09 11:54:45;;;;;;;4.13;3.70;;;27.40;94.60;;;;;;5027668;28;20271;-78
2023/06/09 11:57:14;;;;;;;3.17;2.93;;;27.60;94.70;;;;;;5032102;28;20622;-77
2023/06/09 11:59:41;;;;;;;5.23;3.57;;;27.90;95.40;;;;;;5033801;28;20573;-77
2023/06/09 12:02:08;;;;;;;6.60;6.10;;;27.90;94.60;;;;;;5031375;28;20228;-77
2023/06/09 12:04:39;;;;;;;7.13;6.60;;;28.10;94.00;;;;;;5034620;28;20223;-77
2023/06/09 12:07:10;;;;;;;6.43;5.87;;;28.10;94.30;;;;;;5031852;28;20199;-77
2023/06/09 12:09:37;;;;;;;6.97;6.17;;;27.90;93.60;;;;;;5028200;28;20196;-77
2023/06/09 12:12:05;;;;;;;6.70;6.00;;;27.70;93.40;;;;;;5027599;28;20227;-78
2023/06/09 12:14:33;;;;;;;7.40;6.90;;;27.50;93.80;;;;;;5030479;28;20196;-77
2023/06/09 12:16:59;;;;;;;4.80;4.40;;;27.00;93.50;;;;;;5029668;28;20691;-78
2023/06/09 12:19:26;;;;;;;5.50;5.00;;;27.10;93.20;;;;;;5041531;28;20581;-77
2023/06/09 12:21:53;;;;;;;4.10;3.50;;;27.00;93.10;;;;;;5045383;28;20220;-77
2023/06/09 12:24:21;;;;;;;3.50;3.20;;;27.30;93.30;;;;;;5035789;28;20204;-77
2023/06/09 12:26:49;;;;;;;3.60;3.30;;;27.50;92.80;;;;;;5034263;28;20607;-77
2023/06/09 12:29:16;;;;;;;4.40;3.50;;;27.70;93.30;;;;;;5028077;28;20199;-77
2023/06/09 12:31:46;;;;;;;5.70;3.77;;;27.60;92.30;;;;;;5031380;28;20315;-77
2023/06/09 12:34:24;;;;;;;4.33;3.23;;;27.60;92.00;;;;;;5034088;28;20192;-77
2023/06/09 12:36:51;;;;;;;6.40;6.00;;;27.90;92.50;;;;;;5032519;28;20196;-76
2023/06/09 12:39:18;;;;;;;6.20;5.70;;;28.20;92.50;;;;;;5035303;28;20215;-77
2023/06/09 12:41:46;;;;;;;5.93;5.53;;;28.20;91.80;;;;;;5024424;28;20222;-77
2023/06/09 12:44:20;;;;;;;6.10;5.50;;;28.10;92.00;;;;;;5028928;28;20245;-77
2023/06/09 12:46:54;;;;;;;6.13;5.57;;;28.00;92.20;;;;;;5020515;28;20207;-77
2023/06/09 12:49:29;;;;;;;6.70;6.20;;;28.10;92.30;;;;;;5028379;28;20271;-77
2023/06/09 12:51:56;;;;;;;6.90;6.40;;;28.10;93.40;;;;;;5034829;28;20203;-78
2023/06/09 12:54:23;;;;;;;6.63;6.13;;;28.10;94.20;;;;;;5028151;28;20226;-77